South Elma, Washington
Current Conditions -  °F | °C
As of 11:53 PM on Wednesday 26 Nov 2014 (Local Time) from KSHN Reporting Station
Light Rain Light Rain  
Wind Chill: 53°   Ceiling: 3500
Heat Index: 53°   Visibility: 5mi
Dew Point: 50°   Wind: 7mph
Humidity: 89%   Direction: 180°S
Pressure: 29.86"   Gusts: NA
Location:  46.9859°N, 123.385°W
Report Text: KSHN 270753Z AUTO 18006KT 5SM -RA BR BKN035 BKN045 OVC055 12/10 A2986 RMK AO2 SLP111 P0006 T01170100 401330117
Loading
Personal Weather Stations






























Interactive Weather Map New forecast layout! Learn more

10-Day Weather Forecast

Advertisements
Track Severe Weather on mobile